Time;durP1;ratioP1;P1;durP2;ratioP2;P2;SDS_P1;SDS_P2;PMS_P1;PMS_P2;Temp;Humidity;BMP_temperature;BMP_pressure;BME280_temperature;BME280_humidity;BME280_pressure;Samples;Min_cycle;Max_cycle;Signal;HPM_P1;HPM_P2
2023/11/21 00:02:06;;;;;;;0.10;0.10;;;10.00;99.90;;;;;;5059647;28;20204;-78
2023/11/21 00:04:32;;;;;;;0.10;0.10;;;10.20;99.90;;;;;;5058806;28;20648;-78
2023/11/21 00:06:57;;;;;;;0.10;0.10;;;10.00;99.90;;;;;;5060866;28;20213;-78
2023/11/21 00:09:23;;;;;;;0.10;0.10;;;9.90;99.90;;;;;;5061233;28;20194;-78
2023/11/21 00:11:48;;;;;;;0.10;0.10;;;9.70;99.90;;;;;;5059812;28;20667;-78
2023/11/21 00:14:15;;;;;;;0.10;0.10;;;9.30;99.90;;;;;;5062539;28;20212;-78
2023/11/21 00:16:41;;;;;;;0.10;0.10;;;9.20;99.90;;;;;;5061464;28;20212;-78
2023/11/21 00:19:06;;;;;;;0.10;0.10;;;9.20;99.90;;;;;;5058601;28;20202;-77
2023/11/21 00:21:32;;;;;;;0.10;0.10;;;9.10;99.90;;;;;;5059675;28;20564;-77
2023/11/21 00:23:57;;;;;;;0.10;0.10;;;9.20;99.90;;;;;;5059170;28;20181;-78
2023/11/21 00:26:24;;;;;;;0.10;0.10;;;9.10;99.90;;;;;;5060996;28;20197;-78
2023/11/21 00:28:50;;;;;;;0.10;0.10;;;9.00;99.90;;;;;;5059506;28;20336;-77
2023/11/21 00:31:16;;;;;;;0.10;0.10;;;9.10;99.90;;;;;;5059291;28;20279;-78
2023/11/21 00:33:43;;;;;;;0.10;0.10;;;9.20;99.90;;;;;;5060725;28;20189;-77
2023/11/21 00:36:09;;;;;;;0.10;0.10;;;9.30;99.90;;;;;;5060598;28;20185;-77
2023/11/21 00:38:36;;;;;;;0.10;0.10;;;9.20;99.90;;;;;;5059587;28;20726;-77
2023/11/21 00:41:02;;;;;;;0.10;0.10;;;9.10;99.90;;;;;;5059672;28;20213;-78
2023/11/21 00:43:28;;;;;;;0.10;0.10;;;9.10;99.90;;;;;;5059570;28;20189;-77
2023/11/21 00:45:53;;;;;;;0.10;0.10;;;9.00;99.90;;;;;;5060737;28;20177;-77
2023/11/21 00:48:19;;;;;;;0.10;0.10;;;9.00;99.90;;;;;;5059740;28;20237;-77
2023/11/21 00:50:44;;;;;;;0.10;0.10;;;9.10;99.90;;;;;;5057541;28;20224;-77
2023/11/21 00:53:11;;;;;;;0.10;0.10;;;9.10;99.90;;;;;;5059978;28;20194;-77
2023/11/21 00:55:39;;;;;;;0.10;0.10;;;9.10;99.90;;;;;;5059110;28;20730;-77
2023/11/21 00:58:06;;;;;;;0.10;0.10;;;9.20;99.90;;;;;;5059470;28;20245;-77
2023/11/21 01:00:35;;;;;;;0.10;0.10;;;9.30;99.90;;;;;;5060262;28;20577;-77
2023/11/21 01:03:00;;;;;;;0.10;0.10;;;9.30;99.90;;;;;;5058203;28;20267;-77
2023/11/21 01:05:26;;;;;;;0.10;0.10;;;9.30;99.90;;;;;;5059406;28;20289;-77
2023/11/21 01:07:52;;;;;;;0.00;0.00;;;9.30;99.90;;;;;;5058335;28;20288;-77
2023/11/21 01:10:18;;;;;;;0.10;0.10;;;9.30;99.90;;;;;;5057324;28;20279;-78
2023/11/21 01:12:43;;;;;;;0.10;0.10;;;9.30;99.90;;;;;;5058706;28;20242;-77
2023/11/21 01:15:11;;;;;;;0.10;0.10;;;9.30;99.90;;;;;;5056891;28;20204;-77
2023/11/21 01:17:38;;;;;;;0.10;0.10;;;9.30;99.90;;;;;;5060396;28;20272;-78
2023/11/21 01:20:10;;;;;;;0.00;0.00;;;9.20;99.90;;;;;;5057591;28;20181;-78
2023/11/21 01:22:36;;;;;;;0.10;0.10;;;9.20;99.90;;;;;;5059098;28;20169;-78
2023/11/21 01:25:04;;;;;;;0.00;0.00;;;9.30;99.90;;;;;;5058572;28;20227;-77
2023/11/21 01:27:29;;;;;;;0.10;0.10;;;9.30;99.90;;;;;;5059856;28;20246;-77
2023/11/21 01:29:55;;;;;;;0.10;0.10;;;9.30;99.90;;;;;;5060210;28;20204;-77
2023/11/21 01:32:20;;;;;;;0.10;0.10;;;9.30;99.90;;;;;;5060276;28;20689;-77
2023/11/21 01:34:47;;;;;;;0.10;0.10;;;9.30;99.90;;;;;;5058520;28;20208;-77
2023/11/21 01:37:13;;;;;;;0.10;0.10;;;9.30;99.90;;;;;;5059268;28;20191;-78
2023/11/21 01:39:40;;;;;;;0.10;0.10;;;9.20;99.90;;;;;;5057388;28;20766;-78
2023/11/21 01:42:06;;;;;;;0.10;0.10;;;9.10;99.90;;;;;;5058047;28;20201;-78
2023/11/21 01:44:31;;;;;;;0.10;0.10;;;9.10;99.90;;;;;;5060378;28;20176;-78
2023/11/21 01:46:57;;;;;;;0.10;0.10;;;9.10;99.90;;;;;;5058179;28;20184;-78
2023/11/21 01:49:23;;;;;;;0.10;0.10;;;9.00;99.90;;;;;;5056798;28;20435;-78
2023/11/21 01:51:50;;;;;;;0.00;0.00;;;8.90;99.90;;;;;;5058302;28;20272;-78
2023/11/21 01:54:17;;;;;;;0.10;0.10;;;8.90;99.90;;;;;;5058051;28;20188;-77
2023/11/21 01:56:47;;;;;;;1.13;1.13;;;8.90;99.90;;;;;;5057578;28;20198;-77
2023/11/21 01:59:17;;;;;;;0.10;0.10;;;8.90;99.90;;;;;;5057935;28;21147;-78
2023/11/21 02:01:43;;;;;;;0.10;0.10;;;9.00;99.90;;;;;;5059838;28;20207;-78
2023/11/21 02:04:09;;;;;;;0.10;0.10;;;9.00;99.90;;;;;;5059209;28;20169;-78
2023/11/21 02:06:35;;;;;;;0.10;0.10;;;9.20;99.90;;;;;;5059293;28;20185;-78
2023/11/21 02:09:00;;;;;;;0.00;0.00;;;9.20;99.90;;;;;;5064191;28;20232;-78
2023/11/21 02:11:27;;;;;;;0.00;0.00;;;9.20;99.90;;;;;;5064854;28;20189;-78
2023/11/21 02:13:53;;;;;;;0.07;0.07;;;9.30;99.90;;;;;;5058760;28;20242;-77
2023/11/21 02:16:20;;;;;;;0.10;0.10;;;9.20;99.90;;;;;;5058233;28;20181;-77
2023/11/21 02:18:48;;;;;;;0.10;0.10;;;9.20;99.90;;;;;;5067451;28;20194;-77
2023/11/21 02:21:14;;;;;;;0.10;0.10;;;9.20;99.90;;;;;;5067973;28;20259;-77
2023/11/21 02:23:44;;;;;;;0.10;0.10;;;9.40;99.90;;;;;;5059667;28;20211;-77
2023/11/21 02:26:10;;;;;;;0.10;0.10;;;9.40;99.90;;;;;;5060344;28;20197;-78
2023/11/21 02:28:36;;;;;;;0.10;0.10;;;9.30;99.90;;;;;;5058440;28;20237;-77
2023/11/21 02:31:02;;;;;;;0.10;0.10;;;9.50;99.90;;;;;;5059696;28;20607;-77
2023/11/21 02:33:28;;;;;;;0.10;0.10;;;9.60;99.90;;;;;;5059361;28;20177;-77
2023/11/21 02:35:54;;;;;;;0.10;0.10;;;9.70;99.90;;;;;;5060319;28;20192;-77
2023/11/21 02:38:21;;;;;;;0.10;0.10;;;9.80;99.90;;;;;;5058328;28;20615;-77
2023/11/21 02:40:46;;;;;;;0.10;0.10;;;9.80;99.90;;;;;;5059008;28;20299;-77
2023/11/21 02:43:12;;;;;;;0.10;0.10;;;9.80;99.90;;;;;;5062390;28;20303;-77
2023/11/21 02:45:37;;;;;;;0.10;0.10;;;9.70;99.90;;;;;;5062126;28;20259;-77
2023/11/21 02:48:04;;;;;;;0.10;0.10;;;9.80;99.90;;;;;;5062543;28;20225;-77
2023/11/21 02:50:29;;;;;;;0.10;0.10;;;9.80;99.90;;;;;;5059284;28;20189;-78
2023/11/21 02:52:57;;;;;;;0.10;0.10;;;9.80;99.90;;;;;;5062714;28;20189;-77
2023/11/21 02:55:24;;;;;;;0.10;0.10;;;9.80;99.90;;;;;;5060218;28;20185;-78
2023/11/21 02:57:50;;;;;;;0.10;0.10;;;9.80;99.90;;;;;;5060389;28;20214;-78
2023/11/21 03:00:16;;;;;;;0.10;0.10;;;9.80;99.90;;;;;;5061539;28;20256;-78
2023/11/21 03:02:43;;;;;;;0.10;0.10;;;9.80;99.90;;;;;;5060682;28;20181;-78
2023/11/21 03:05:09;;;;;;;0.10;0.10;;;9.80;99.90;;;;;;5059923;28;20671;-78
2023/11/21 03:07:34;;;;;;;0.10;0.10;;;9.80;99.90;;;;;;5058058;28;20182;-78
2023/11/21 03:10:00;;;;;;;0.10;0.10;;;9.60;99.90;;;;;;5059599;28;20205;-78
2023/11/21 03:12:26;;;;;;;0.10;0.10;;;9.60;99.90;;;;;;5060815;28;20180;-78
2023/11/21 03:14:51;;;;;;;0.10;0.10;;;9.60;99.90;;;;;;5060788;28;20215;-78
2023/11/21 03:17:17;;;;;;;0.10;0.10;;;9.70;99.90;;;;;;5062677;28;20273;-77
2023/11/21 03:19:42;;;;;;;0.10;0.10;;;9.70;99.90;;;;;;5061965;28;20278;-77
2023/11/21 03:22:08;;;;;;;0.10;0.10;;;9.70;99.90;;;;;;5061632;28;20221;-77
2023/11/21 03:24:34;;;;;;;0.10;0.10;;;9.70;99.90;;;;;;5042983;28;20182;-77
2023/11/21 03:27:00;;;;;;;0.10;0.10;;;9.70;99.90;;;;;;5061910;28;20342;-77
2023/11/21 03:29:26;;;;;;;0.10;0.10;;;9.70;99.90;;;;;;5061342;28;20283;-77
2023/11/21 06:41:52;;;;;;;0.10;0.10;;;9.10;99.90;;;;;;5056777;28;20223;-78
2023/11/21 06:44:19;;;;;;;0.10;0.10;;;9.00;99.90;;;;;;5057984;28;20651;-78
2023/11/21 06:46:45;;;;;;;0.03;0.03;;;9.00;99.90;;;;;;5065209;28;20243;-78
2023/11/21 06:49:11;;;;;;;0.10;0.10;;;9.00;99.90;;;;;;5065012;28;20808;-77
2023/11/21 06:51:37;;;;;;;0.10;0.10;;;9.00;99.90;;;;;;5059284;28;20205;-78
2023/11/21 06:54:02;;;;;;;0.10;0.10;;;9.00;99.90;;;;;;5062023;28;20217;-78
2023/11/21 06:56:28;;;;;;;0.10;0.10;;;9.00;99.90;;;;;;5060507;28;20196;-77
2023/11/21 06:58:55;;;;;;;0.10;0.10;;;9.00;99.90;;;;;;5059988;28;20259;-77
2023/11/21 07:01:21;;;;;;;0.10;0.10;;;9.00;99.90;;;;;;5059279;28;20291;-78
2023/11/21 07:03:46;;;;;;;0.10;0.10;;;9.00;99.90;;;;;;5061629;28;20188;-78
2023/11/21 07:06:12;;;;;;;0.10;0.10;;;9.00;99.90;;;;;;5059605;28;20619;-78
2023/11/21 07:08:37;;;;;;;0.10;0.10;;;9.10;99.90;;;;;;5059990;28;20214;-77
2023/11/21 07:11:04;;;;;;;0.10;0.10;;;9.00;99.90;;;;;;5060409;28;20185;-78
2023/11/21 07:13:30;;;;;;;0.10;0.10;;;9.00;99.90;;;;;;5061111;28;20218;-80
2023/11/21 07:15:57;;;;;;;0.10;0.10;;;9.00;99.90;;;;;;5059302;28;20660;-79
2023/11/21 07:18:23;;;;;;;0.10;0.10;;;8.90;99.90;;;;;;5059815;28;20240;-80
2023/11/21 07:20:48;;;;;;;0.10;0.10;;;9.00;99.90;;;;;;5061386;28;20247;-80
2023/11/21 07:23:15;;;;;;;0.10;0.10;;;8.90;99.90;;;;;;5060636;28;20544;-80
2023/11/21 07:25:43;;;;;;;0.00;0.00;;;9.00;99.90;;;;;;5061457;28;20181;-80
2023/11/21 07:28:08;;;;;;;0.10;0.10;;;9.00;99.90;;;;;;5059413;28;20675;-80
2023/11/21 07:30:34;;;;;;;0.17;0.17;;;9.00;99.90;;;;;;5058974;28;20233;-80
2023/11/21 07:32:59;;;;;;;0.00;0.00;;;9.10;99.90;;;;;;5059644;28;20201;-80
2023/11/21 07:35:26;;;;;;;0.10;0.10;;;9.10;99.90;;;;;;5060423;28;20213;-80
2023/11/21 07:37:52;;;;;;;0.10;0.10;;;9.10;99.90;;;;;;5061363;28;20189;-79
2023/11/21 07:40:17;;;;;;;0.10;0.10;;;9.10;99.90;;;;;;5059667;28;20200;-77
2023/11/21 07:42:43;;;;;;;0.10;0.10;;;9.10;99.90;;;;;;5056924;28;20272;-76
2023/11/21 07:45:08;;;;;;;0.00;0.00;;;9.10;99.90;;;;;;5058623;28;20181;-77
2023/11/21 07:47:34;;;;;;;0.10;0.10;;;9.10;99.90;;;;;;5059545;28;20188;-78
2023/11/21 07:50:03;;;;;;;0.10;0.10;;;9.10;99.90;;;;;;5057425;28;20232;-78
2023/11/21 07:52:29;;;;;;;0.10;0.10;;;9.10;99.90;;;;;;5058793;28;20183;-78
2023/11/21 07:54:55;;;;;;;0.10;0.10;;;9.20;99.90;;;;;;5058914;28;20371;-78
2023/11/21 07:57:20;;;;;;;0.10;0.10;;;9.20;99.90;;;;;;5059574;28;20539;-77
2023/11/21 07:59:46;;;;;;;0.00;0.00;;;9.20;99.90;;;;;;5059687;28;20212;-77
2023/11/21 08:02:11;;;;;;;0.10;0.10;;;9.30;99.90;;;;;;5057169;28;20747;-78
2023/11/21 08:04:37;;;;;;;0.10;0.10;;;9.30;99.90;;;;;;5054920;28;20684;-78
2023/11/21 08:07:03;;;;;;;0.10;0.10;;;9.40;99.90;;;;;;5058860;28;20721;-77
2023/11/21 08:09:29;;;;;;;0.10;0.10;;;9.40;99.90;;;;;;5058647;28;20198;-77
2023/11/21 08:11:55;;;;;;;0.10;0.10;;;9.50;99.90;;;;;;5058195;28;20837;-78
2023/11/21 08:14:20;;;;;;;0.10;0.10;;;9.50;99.90;;;;;;5059370;28;20223;-77
2023/11/21 08:16:46;;;;;;;0.10;0.10;;;9.50;99.90;;;;;;5059428;28;20203;-80
2023/11/21 08:19:11;;;;;;;0.10;0.10;;;9.40;99.90;;;;;;5058493;28;20689;-79
2023/11/21 08:21:38;;;;;;;0.10;0.10;;;9.40;99.90;;;;;;5055783;28;20202;-79
2023/11/21 08:24:05;;;;;;;0.10;0.10;;;9.40;99.90;;;;;;5056628;28;20258;-78
2023/11/21 08:26:31;;;;;;;0.10;0.10;;;9.50;99.90;;;;;;5055348;28;20563;-77
2023/11/21 08:28:56;;;;;;;0.10;0.10;;;9.60;99.90;;;;;;5055205;28;20205;-78
2023/11/21 08:31:26;;;;;;;0.10;0.10;;;9.60;99.90;;;;;;5057414;28;20223;-78
2023/11/21 08:33:55;;;;;;;0.10;0.10;;;9.70;99.90;;;;;;5060809;28;20707;-79
2023/11/21 08:36:23;;;;;;;0.03;0.03;;;9.60;99.90;;;;;;5060493;28;20176;-79
2023/11/21 08:38:49;;;;;;;0.10;0.10;;;9.60;99.90;;;;;;5057691;28;20292;-79
2023/11/21 08:41:15;;;;;;;0.10;0.10;;;9.60;99.90;;;;;;5059923;28;20286;-79
2023/11/21 08:43:42;;;;;;;0.10;0.10;;;9.60;99.90;;;;;;5060076;28;20390;-79
2023/11/21 08:46:08;;;;;;;0.10;0.10;;;9.60;99.90;;;;;;5080833;28;20262;-79
2023/11/21 08:48:35;;;;;;;0.10;0.10;;;9.70;99.90;;;;;;5079823;28;20205;-79
2023/11/21 08:51:01;;;;;;;0.03;0.03;;;9.80;99.90;;;;;;5066738;28;20200;-79
2023/11/21 08:53:26;;;;;;;0.10;0.10;;;9.80;99.90;;;;;;5060488;28;20236;-79
2023/11/21 08:55:53;;;;;;;0.03;0.03;;;9.80;99.90;;;;;;5059333;28;20246;-79
2023/11/21 08:58:19;;;;;;;0.10;0.10;;;9.90;99.90;;;;;;5060393;28;20726;-79
2023/11/21 09:00:46;;;;;;;0.10;0.10;;;9.90;99.90;;;;;;5059480;28;20200;-79
2023/11/21 09:03:12;;;;;;;0.10;0.10;;;9.90;99.90;;;;;;5060767;28;20177;-79
2023/11/21 09:05:39;;;;;;;0.10;0.10;;;9.90;99.90;;;;;;5076418;28;20246;-79
2023/11/21 09:08:04;;;;;;;0.10;0.10;;;9.80;99.90;;;;;;5061332;28;20748;-78
2023/11/21 09:10:30;;;;;;;0.00;0.00;;;9.90;99.90;;;;;;5059805;28;20182;-78
2023/11/21 09:12:56;;;;;;;0.10;0.10;;;9.80;99.90;;;;;;5060321;28;20189;-79
2023/11/21 09:15:21;;;;;;;0.10;0.10;;;9.80;99.90;;;;;;5059256;28;20182;-79
2023/11/21 09:17:48;;;;;;;0.10;0.10;;;9.80;99.90;;;;;;5059776;28;20212;-79
2023/11/21 09:20:14;;;;;;;0.10;0.10;;;9.70;99.90;;;;;;5059332;28;20181;-79
2023/11/21 09:22:40;;;;;;;0.10;0.10;;;9.70;99.90;;;;;;5060114;28;20181;-78
2023/11/21 09:25:08;;;;;;;0.10;0.10;;;9.70;99.90;;;;;;5059768;28;20394;-79
2023/11/21 09:27:35;;;;;;;0.10;0.10;;;9.70;99.90;;;;;;5061270;28;20184;-79
2023/11/21 09:30:01;;;;;;;0.10;0.10;;;9.80;99.90;;;;;;5060608;28;20205;-79
2023/11/21 09:32:26;;;;;;;0.10;0.10;;;9.90;99.90;;;;;;5076183;28;20184;-79
2023/11/21 09:34:55;;;;;;;0.10;0.10;;;9.90;99.90;;;;;;5077416;28;20316;-78
2023/11/21 09:37:20;;;;;;;0.10;0.10;;;10.10;99.90;;;;;;5071004;28;20188;-77
2023/11/21 09:39:47;;;;;;;0.10;0.10;;;10.00;99.90;;;;;;5062484;28;20216;-79
2023/11/21 09:42:16;;;;;;;0.10;0.10;;;9.90;99.90;;;;;;5061181;28;20557;-79
2023/11/21 09:44:55;;;;;;;0.10;0.10;;;9.90;99.90;;;;;;5063040;28;20183;-79
2023/11/21 09:47:21;;;;;;;0.10;0.10;;;10.20;99.90;;;;;;5062030;28;20169;-78
2023/11/21 09:49:49;;;;;;;0.10;0.10;;;10.30;99.90;;;;;;5057309;28;20200;-77
2023/11/21 09:52:28;;;;;;;0.10;0.10;;;10.40;99.90;;;;;;5058999;28;20242;-77
2023/11/21 09:54:56;;;;;;;0.10;0.10;;;10.40;99.90;;;;;;5059698;28;20196;-77
2023/11/21 09:57:23;;;;;;;0.10;0.10;;;10.30;99.90;;;;;;5060616;28;20195;-77
2023/11/21 09:59:55;;;;;;;0.20;0.20;;;10.20;99.90;;;;;;5062583;28;20752;-78
2023/11/21 10:02:25;;;;;;;0.03;0.03;;;10.20;99.90;;;;;;5062723;28;20204;-78
2023/11/21 10:04:52;;;;;;;0.10;0.10;;;10.30;99.90;;;;;;5062687;28;20208;-78
2023/11/21 10:07:18;;;;;;;0.10;0.10;;;10.30;99.90;;;;;;5064046;28;20201;-78
2023/11/21 10:09:44;;;;;;;0.00;0.00;;;10.20;99.90;;;;;;5061046;28;20196;-77
2023/11/21 10:12:14;;;;;;;0.00;0.00;;;10.40;99.90;;;;;;5063430;28;20722;-78
2023/11/21 10:14:42;;;;;;;0.10;0.10;;;10.50;99.90;;;;;;5061311;28;20189;-78
2023/11/21 10:17:10;;;;;;;0.10;0.10;;;10.40;99.90;;;;;;5060589;28;20263;-78
2023/11/21 10:19:36;;;;;;;0.03;0.03;;;10.40;99.90;;;;;;5061441;28;20790;-78
2023/11/21 10:22:03;;;;;;;0.10;0.10;;;10.50;99.90;;;;;;5062434;28;20201;-79
2023/11/21 10:24:29;;;;;;;0.00;0.00;;;10.50;99.90;;;;;;5061604;28;20212;-77
2023/11/21 10:26:54;;;;;;;0.10;0.10;;;10.80;99.90;;;;;;5059659;28;20263;-78
2023/11/21 10:29:21;;;;;;;0.10;0.10;;;11.00;99.90;;;;;;5056715;28;20201;-77
2023/11/21 10:31:50;;;;;;;0.10;0.10;;;11.10;99.90;;;;;;5058705;28;20658;-77
2023/11/21 10:34:18;;;;;;;0.10;0.10;;;11.50;99.90;;;;;;5061207;28;20192;-77
